Time;durP1;ratioP1;P1;durP2;ratioP2;P2;SDS_P1;SDS_P2;PMS_P1;PMS_P2;Temp;Humidity;BMP_temperature;BMP_pressure;BME280_temperature;BME280_humidity;BME280_pressure;Samples;Min_cycle;Max_cycle;Signal;HPM_P1;HPM_P2
2023/09/28 00:02:57;;;;;;;4.82;2.95;;;14.60;99.90;;;;;;5005629;28;20065;-73
2023/09/28 00:05:22;;;;;;;8.25;3.50;;;14.60;99.90;;;;;;5005624;28;20057;-74
2023/09/28 00:07:51;;;;;;;5.78;3.15;;;14.60;99.90;;;;;;4999680;28;20061;-74
2023/09/28 00:10:20;;;;;;;7.35;3.55;;;14.60;99.90;;;;;;5007524;28;20062;-74
2023/09/28 00:12:48;;;;;;;5.53;3.55;;;14.70;99.90;;;;;;5006648;28;20439;-74
2023/09/28 00:15:15;;;;;;;6.07;3.40;;;14.60;99.90;;;;;;5007283;28;20033;-74
2023/09/28 00:17:41;;;;;;;5.97;3.55;;;14.70;99.90;;;;;;5004276;28;20485;-73
2023/09/28 00:20:28;;;;;;;4.63;3.17;;;14.60;99.90;;;;;;5003460;28;20125;-72
2023/09/28 00:22:56;;;;;;;7.60;4.00;;;14.70;99.90;;;;;;5000558;28;20050;-72
2023/09/28 00:25:26;;;;;;;6.13;3.42;;;14.70;99.90;;;;;;5006684;28;20021;-72
2023/09/28 00:27:57;;;;;;;5.15;3.22;;;14.70;99.90;;;;;;5001453;28;20053;-72
2023/09/28 00:30:26;;;;;;;5.25;3.33;;;14.70;99.90;;;;;;5019121;28;20045;-72
2023/09/28 00:32:53;;;;;;;5.55;3.80;;;14.70;99.90;;;;;;5008260;28;20052;-72
2023/09/28 00:35:21;;;;;;;5.97;3.03;;;14.70;99.90;;;;;;5005763;28;20508;-72
2023/09/28 00:37:52;;;;;;;7.30;3.33;;;14.70;99.90;;;;;;5003939;28;20030;-72
2023/09/28 00:40:20;;;;;;;5.47;3.20;;;14.70;99.90;;;;;;5006181;28;20056;-73
2023/09/28 00:42:47;;;;;;;6.05;3.63;;;14.60;99.90;;;;;;5016358;28;20037;-73
2023/09/28 00:45:21;;;;;;;6.53;3.55;;;14.60;99.90;;;;;;5002713;28;20034;-73
2023/09/28 00:47:50;;;;;;;5.20;3.58;;;14.60;99.90;;;;;;5003460;28;20022;-73
2023/09/28 00:50:17;;;;;;;6.85;3.72;;;14.50;99.90;;;;;;5002305;28;20030;-73
2023/09/28 00:52:55;;;;;;;5.72;3.72;;;14.50;99.90;;;;;;5020655;28;20058;-73
2023/09/28 00:55:33;;;;;;;5.55;4.15;;;14.40;99.90;;;;;;5003847;28;20168;-73
2023/09/28 00:58:05;;;;;;;8.35;3.97;;;14.40;99.90;;;;;;5003266;28;20529;-73
2023/09/28 01:00:34;;;;;;;6.43;3.53;;;14.40;99.90;;;;;;5003917;28;20030;-73
2023/09/28 01:03:08;;;;;;;5.38;3.40;;;14.30;99.90;;;;;;5016105;28;20030;-73
2023/09/28 01:05:34;;;;;;;;;;;14.30;99.90;;;;;;4999713;28;20026;-72
2023/09/28 01:08:18;;;;;;;6.13;3.17;;;14.20;99.90;;;;;;4997957;28;19910;-73
2023/09/28 01:10:44;;;;;;;;;;;14.20;99.90;;;;;;5001437;28;20041;-73
2023/09/28 01:13:12;;;;;;;7.20;3.55;;;14.20;99.90;;;;;;5005046;28;19910;-73
2023/09/28 01:15:42;;;;;;;5.38;3.60;;;14.20;99.90;;;;;;5004646;28;20034;-73
2023/09/28 01:18:15;;;;;;;5.82;3.35;;;14.20;99.90;;;;;;5002511;28;20072;-73
2023/09/28 01:20:48;;;;;;;8.23;3.55;;;14.20;99.90;;;;;;4999201;28;21306;-73
2023/09/28 01:23:17;;;;;;;5.15;3.30;;;14.20;99.90;;;;;;5005631;28;20025;-73
2023/09/28 01:25:46;;;;;;;7.28;3.42;;;14.20;99.90;;;;;;5003817;28;20101;-74
2023/09/28 01:28:11;;;;;;;5.70;3.10;;;14.20;99.90;;;;;;5002289;28;20034;-73
2023/09/28 01:30:40;;;;;;;8.80;3.65;;;14.20;99.90;;;;;;4998928;28;20042;-73
2023/09/28 01:33:18;;;;;;;5.88;3.10;;;14.20;99.90;;;;;;5003088;28;20034;-73
2023/09/28 01:35:56;;;;;;;4.93;3.05;;;14.20;99.90;;;;;;5014698;28;20031;-73
2023/09/28 01:39:01;;;;;;;4.43;3.22;;;14.20;99.90;;;;;;5000282;28;20049;-73
2023/09/28 01:41:29;;;;;;;5.53;3.10;;;14.20;99.90;;;;;;5016324;28;20025;-74
2023/09/28 01:43:55;;;;;;;6.57;3.13;;;14.20;99.90;;;;;;5016599;28;20027;-73
2023/09/28 01:46:20;;;;;;;5.30;3.05;;;14.20;99.90;;;;;;5002212;28;20164;-74
2023/09/28 01:48:49;;;;;;;6.25;3.10;;;14.20;99.90;;;;;;5005942;28;20040;-74
2023/09/28 01:51:15;;;;;;;5.18;2.90;;;14.20;99.90;;;;;;5012688;28;20041;-73
2023/09/28 01:53:40;;;;;;;5.45;3.08;;;14.30;99.90;;;;;;4997305;28;20034;-73
2023/09/28 01:56:06;;;;;;;6.00;2.88;;;14.30;99.90;;;;;;5001196;28;20075;-73
2023/09/28 01:58:32;;;;;;;8.45;3.28;;;14.30;99.90;;;;;;4999882;28;20113;-73
2023/09/28 02:00:57;;;;;;;4.90;2.83;;;14.30;99.90;;;;;;4997007;28;20136;-73
2023/09/28 02:03:23;;;;;;;5.22;2.72;;;14.30;99.90;;;;;;5000366;28;20034;-73
2023/09/28 02:05:49;;;;;;;4.18;2.50;;;14.30;99.90;;;;;;5013072;28;20029;-73
2023/09/28 02:08:15;;;;;;;4.65;2.97;;;14.30;99.90;;;;;;5002858;28;20113;-74
2023/09/28 02:10:44;;;;;;;5.20;3.20;;;14.30;99.90;;;;;;4997637;28;20112;-74
2023/09/28 02:13:09;;;;;;;5.95;3.33;;;14.30;99.90;;;;;;4996975;28;20061;-74
2023/09/28 02:15:35;;;;;;;5.55;2.75;;;14.30;99.90;;;;;;5005209;28;20053;-74
2023/09/28 02:18:04;;;;;;;4.00;2.53;;;14.30;99.90;;;;;;5003082;28;20117;-72
2023/09/28 02:20:36;;;;;;;5.30;2.88;;;14.30;99.90;;;;;;5001373;28;20388;-73
2023/09/28 02:23:09;;;;;;;5.18;2.92;;;14.30;99.90;;;;;;4999350;28;20018;-73
2023/09/28 02:25:34;;;;;;;4.32;3.00;;;14.30;99.90;;;;;;5002137;28;20065;-73
2023/09/28 02:28:00;;;;;;;5.15;2.65;;;14.30;99.90;;;;;;4997001;28;20025;-73
2023/09/28 02:30:31;;;;;;;5.97;2.45;;;14.30;99.90;;;;;;4995596;28;20126;-72
2023/09/28 02:33:00;;;;;;;8.02;3.00;;;14.30;99.90;;;;;;4999376;28;20038;-73
2023/09/28 02:35:26;;;;;;;4.35;2.60;;;14.30;99.90;;;;;;4997698;28;20037;-73
2023/09/28 02:37:52;;;;;;;5.72;2.80;;;14.30;99.90;;;;;;4995330;28;20033;-73
2023/09/28 02:40:19;;;;;;;3.60;2.63;;;14.30;99.90;;;;;;5014372;28;20084;-73
2023/09/28 02:42:52;;;;;;;3.63;2.58;;;14.30;99.90;;;;;;5001737;28;20041;-72
2023/09/28 02:45:17;;;;;;;5.32;2.95;;;14.30;99.90;;;;;;4998531;28;20030;-73
2023/09/28 02:47:47;;;;;;;9.32;3.45;;;14.30;99.90;;;;;;4997883;28;20026;-72
2023/09/28 02:50:16;;;;;;;5.43;3.50;;;14.30;99.90;;;;;;4997252;28;20145;-73
2023/09/28 02:52:46;;;;;;;6.03;3.28;;;14.30;99.90;;;;;;4997987;23;20039;-71
2023/09/28 02:55:12;;;;;;;6.45;3.53;;;14.30;99.90;;;;;;4974946;28;20045;-72
2023/09/28 02:57:41;;;;;;;6.38;3.08;;;14.30;99.90;;;;;;4974376;28;20035;-71
2023/09/28 03:02:45;;;;;;;6.22;3.13;;;14.30;99.90;;;;;;4971623;28;20019;-75
2023/09/28 03:05:18;;;;;;;6.35;3.85;;;14.30;99.90;;;;;;4959164;28;20783;-76
2023/09/28 03:07:45;;;;;;;5.93;4.07;;;14.30;99.90;;;;;;4975007;28;20350;-76
2023/09/28 03:10:11;;;;;;;12.20;4.50;;;14.30;99.90;;;;;;4972174;28;20027;-74
2023/09/28 03:12:42;;;;;;;7.45;4.40;;;14.20;99.90;;;;;;4971899;28;20031;-73
2023/09/28 03:15:11;;;;;;;8.43;4.55;;;14.20;99.90;;;;;;4949177;28;20039;-72
2023/09/28 03:17:39;;;;;;;6.88;4.10;;;14.20;99.90;;;;;;4956728;28;20026;-74
2023/09/28 03:20:17;;;;;;;8.00;4.80;;;14.10;99.90;;;;;;4973807;28;20018;-75
2023/09/28 03:22:45;;;;;;;9.20;4.50;;;14.10;99.90;;;;;;4971586;28;20045;-73
2023/09/28 03:25:22;;;;;;;7.25;4.50;;;14.10;99.90;;;;;;4973836;28;20489;-75
2023/09/28 03:28:00;;;;;;;9.27;5.30;;;14.00;99.90;;;;;;4971049;28;20394;-75
2023/09/28 03:30:39;;;;;;;10.38;4.93;;;14.00;99.90;;;;;;4967554;28;20045;-73
2023/09/28 03:33:05;;;;;;;9.60;4.75;;;14.00;99.90;;;;;;4974171;28;20057;-72
2023/09/28 03:35:33;;;;;;;8.75;4.38;;;14.00;99.90;;;;;;4971744;28;20027;-75
2023/09/28 03:37:59;;;;;;;6.70;4.13;;;13.90;99.90;;;;;;4971240;28;20058;-72
2023/09/28 03:40:36;;;;;;;9.02;4.35;;;13.90;99.90;;;;;;4972606;28;20028;-71
2023/09/28 03:43:04;;;;;;;5.43;3.50;;;14.00;99.90;;;;;;4986856;28;20023;-72
2023/09/28 03:45:38;;;;;;;6.35;3.85;;;14.00;99.90;;;;;;4969992;28;20029;-75
2023/09/28 03:48:04;;;;;;;7.22;3.85;;;13.90;99.90;;;;;;4984300;28;20136;-74
2023/09/28 03:50:30;;;;;;;5.50;3.45;;;13.90;99.90;;;;;;4971034;28;20077;-71
2023/09/28 03:52:59;;;;;;;7.18;3.40;;;14.00;99.90;;;;;;4970863;28;20034;-72
2023/09/28 03:55:27;;;;;;;7.20;3.42;;;14.00;99.90;;;;;;4967899;28;20026;-72
2023/09/28 03:57:52;;;;;;;5.28;3.00;;;14.00;99.90;;;;;;4957101;28;20114;-72
2023/09/28 04:00:19;;;;;;;7.03;3.03;;;14.00;99.90;;;;;;4974937;28;20486;-73
2023/09/28 04:02:49;;;;;;;7.38;2.80;;;14.00;99.90;;;;;;4971038;28;20082;-72
2023/09/28 04:05:18;;;;;;;8.70;3.10;;;14.00;99.90;;;;;;4973444;28;20443;-76
2023/09/28 04:07:44;;;;;;;7.35;3.33;;;14.00;99.90;;;;;;4971288;28;20489;-76
2023/09/28 04:10:13;;;;;;;7.80;2.88;;;14.00;99.90;;;;;;4956740;28;20022;-72
2023/09/28 04:12:39;;;;;;;6.43;3.38;;;14.00;99.90;;;;;;4971759;28;20294;-76
2023/09/28 04:15:05;;;;;;;6.35;3.47;;;14.10;99.90;;;;;;4973606;28;20046;-72
2023/09/28 04:17:34;;;;;;;9.15;3.72;;;14.10;99.90;;;;;;4988292;28;20042;-72
2023/09/28 04:20:00;;;;;;;5.68;2.88;;;14.10;99.90;;;;;;4960533;28;20026;-72
2023/09/28 04:22:29;;;;;;;10.15;3.88;;;14.10;99.90;;;;;;4973607;28;20026;-71
2023/09/28 04:24:55;;;;;;;6.00;4.00;;;14.10;99.90;;;;;;4974700;28;20098;-75
2023/09/28 04:27:24;;;;;;;10.52;4.00;;;14.10;99.90;;;;;;4961182;28;20030;-75
2023/09/28 04:29:49;;;;;;;5.90;3.60;;;14.10;99.90;;;;;;4974448;28;20023;-75
2023/09/28 04:32:21;;;;;;;6.90;3.72;;;14.00;99.90;;;;;;4957522;28;20196;-77
2023/09/28 04:34:47;;;;;;;6.75;3.30;;;14.00;99.90;;;;;;4976585;28;20054;-76
2023/09/28 04:37:12;;;;;;;6.90;3.42;;;14.00;99.90;;;;;;4972378;28;20426;-76
2023/09/28 04:39:38;;;;;;;8.45;4.07;;;14.00;99.90;;;;;;4974199;28;20026;-76
2023/09/28 04:42:04;;;;;;;8.73;3.50;;;14.00;99.90;;;;;;4973205;28;20023;-77
2023/09/28 04:44:30;;;;;;;6.57;3.15;;;13.90;99.90;;;;;;4973851;28;20078;-75
2023/09/28 04:46:56;;;;;;;7.90;3.63;;;13.90;99.90;;;;;;4977688;28;20390;-77
2023/09/28 04:49:31;;;;;;;7.28;3.72;;;13.90;99.90;;;;;;4975371;28;20035;-77
2023/09/28 04:51:58;;;;;;;6.70;3.88;;;13.90;99.90;;;;;;4958928;28;20102;-77
2023/09/28 04:54:27;;;;;;;6.85;3.90;;;13.80;99.90;;;;;;4985375;28;20027;-72
2023/09/28 04:56:53;;;;;;;7.55;3.75;;;13.80;99.90;;;;;;4975610;28;20373;-72
2023/09/28 04:59:22;;;;;;;6.38;3.42;;;13.80;99.90;;;;;;4974046;28;20027;-74
2023/09/28 05:01:47;;;;;;;5.25;3.55;;;13.80;99.90;;;;;;4951177;28;20081;-74
2023/09/28 05:04:19;;;;;;;7.57;3.90;;;13.80;99.90;;;;;;4972618;28;20027;-74
2023/09/28 05:06:46;;;;;;;6.85;3.58;;;13.80;99.90;;;;;;4968278;28;20033;-74
2023/09/28 05:09:13;;;;;;;17.17;4.22;;;13.80;99.90;;;;;;4972953;28;20027;-74
2023/09/28 05:11:39;;;;;;;10.88;3.50;;;13.80;99.90;;;;;;4972744;28;20037;-73
2023/09/28 05:14:05;;;;;;;8.20;3.47;;;13.80;99.90;;;;;;4971434;28;20045;-74
2023/09/28 05:16:34;;;;;;;6.60;3.17;;;13.80;99.90;;;;;;4972657;28;20030;-73
2023/09/28 05:19:00;;;;;;;5.78;3.28;;;13.80;99.90;;;;;;4952356;28;20034;-73
2023/09/28 05:21:28;;;;;;;5.97;3.35;;;13.80;99.90;;;;;;4974421;28;20022;-73
2023/09/28 05:23:57;;;;;;;7.15;2.85;;;13.90;99.90;;;;;;4951201;28;20038;-74
2023/09/28 05:26:23;;;;;;;5.50;3.35;;;13.90;99.90;;;;;;4970826;28;20031;-74
2023/09/28 05:28:51;;;;;;;9.00;3.53;;;14.00;99.90;;;;;;4970873;28;20094;-73
2023/09/28 05:31:20;;;;;;;8.27;3.25;;;14.00;99.90;;;;;;4968660;28;20042;-73
2023/09/28 05:33:45;;;;;;;6.80;3.63;;;14.00;99.90;;;;;;4970172;28;20037;-73
2023/09/28 05:36:14;;;;;;;6.95;3.75;;;14.00;99.90;;;;;;4954295;28;20031;-73
2023/09/28 05:38:39;;;;;;;8.20;3.92;;;14.10;99.90;;;;;;4983193;28;20027;-73
2023/09/28 05:41:11;;;;;;;9.32;4.07;;;14.10;99.90;;;;;;4971522;28;20027;-72
2023/09/28 05:43:43;;;;;;;12.60;3.72;;;14.10;99.90;;;;;;4970967;28;20026;-73
2023/09/28 05:46:09;;;;;;;8.10;4.15;;;14.10;99.90;;;;;;4970836;28;20135;-73
2023/09/28 05:48:35;;;;;;;8.63;3.67;;;14.10;99.90;;;;;;4970561;28;20027;-73
2023/09/28 05:51:10;;;;;;;7.95;3.85;;;14.10;99.90;;;;;;4971602;28;20035;-73
2023/09/28 05:53:36;;;;;;;9.15;4.35;;;14.10;99.90;;;;;;4955081;28;20034;-73
2023/09/28 05:56:05;;;;;;;8.13;3.92;;;14.00;99.90;;;;;;4969398;28;20023;-73
2023/09/28 05:58:31;;;;;;;8.43;3.22;;;14.10;99.90;;;;;;4971749;28;20030;-74
2023/09/28 06:01:06;;;;;;;6.22;3.22;;;14.00;99.90;;;;;;4968621;28;20034;-74
2023/09/28 06:03:35;;;;;;;6.25;3.50;;;14.10;99.90;;;;;;4971272;28;20042;-73
2023/09/28 06:06:17;;;;;;;5.55;3.55;;;14.10;99.90;;;;;;4952346;28;20022;-74
2023/09/28 06:08:46;;;;;;;9.02;3.60;;;14.00;99.90;;;;;;4968956;28;20050;-74
2023/09/28 06:11:15;;;;;;;6.10;3.42;;;14.00;99.90;;;;;;4972579;28;20034;-74
2023/09/28 06:13:47;;;;;;;4.88;3.40;;;14.00;99.90;;;;;;4970045;28;20030;-74
2023/09/28 06:16:16;;;;;;;9.05;3.70;;;14.10;99.90;;;;;;4967484;28;20659;-73
2023/09/28 06:18:48;;;;;;;11.18;4.18;;;14.10;99.90;;;;;;4972634;28;20371;-71
2023/09/28 06:21:28;;;;;;;9.30;3.85;;;14.10;99.90;;;;;;4973537;28;20038;-72
2023/09/28 06:23:54;;;;;;;8.80;4.15;;;14.10;99.90;;;;;;4961677;28;21189;-71
2023/09/28 06:26:37;;;;;;;7.70;3.78;;;14.20;99.90;;;;;;4976388;28;20058;-72
2023/09/28 06:29:15;;;;;;;9.60;4.53;;;14.20;99.90;;;;;;4962896;28;20113;-71
2023/09/28 06:31:41;;;;;;;11.13;3.53;;;14.20;99.90;;;;;;4976540;28;20470;-72
2023/09/28 06:34:16;;;;;;;9.15;3.80;;;14.20;99.90;;;;;;4956223;28;20019;-71
2023/09/28 06:36:41;;;;;;;9.90;3.95;;;14.30;99.90;;;;;;4973459;28;20393;-72
2023/09/28 06:39:08;;;;;;;12.25;3.80;;;14.30;99.90;;;;;;4955221;28;20027;-72
2023/09/28 06:41:34;;;;;;;9.20;4.20;;;14.40;99.90;;;;;;4970635;28;20058;-72
2023/09/28 06:43:59;;;;;;;7.97;4.13;;;14.60;99.90;;;;;;4953873;28;20104;-72
2023/09/28 06:46:25;;;;;;;8.95;3.88;;;14.60;99.90;;;;;;4973367;28;20157;-71
2023/09/28 06:48:53;;;;;;;11.25;3.63;;;14.80;99.90;;;;;;4964607;28;20393;-73
2023/09/28 06:51:22;;;;;;;12.75;3.88;;;14.90;99.90;;;;;;4966378;28;20030;-73
2023/09/28 06:53:54;;;;;;;10.35;3.75;;;15.00;99.90;;;;;;4969298;28;20026;-73
2023/09/28 06:56:23;;;;;;;9.77;3.67;;;15.10;99.90;;;;;;4969573;28;20034;-73
2023/09/28 06:58:50;;;;;;;6.90;3.85;;;15.10;99.90;;;;;;4971096;28;20031;-74
2023/09/28 07:01:19;;;;;;;8.70;3.67;;;15.20;99.90;;;;;;4964648;28;20030;-73
2023/09/28 07:03:52;;;;;;;10.70;4.07;;;15.30;99.90;;;;;;4970909;28;20026;-74
2023/09/28 07:06:21;;;;;;;12.10;4.32;;;15.40;99.90;;;;;;4952184;28;20050;-74
2023/09/28 07:08:49;;;;;;;13.45;5.47;;;15.50;99.90;;;;;;4966018;28;20030;-75
2023/09/28 07:11:15;;;;;;;21.83;5.00;;;15.60;99.90;;;;;;4959812;28;20178;-74
2023/09/28 07:13:41;;;;;;;11.60;4.70;;;15.70;99.90;;;;;;4963298;28;20114;-74
2023/09/28 07:16:09;;;;;;;10.30;4.90;;;15.80;99.90;;;;;;4964443;28;20149;-75
2023/09/28 07:18:41;;;;;;;6.35;3.85;;;15.90;99.90;;;;;;4962125;28;20030;-76
2023/09/28 07:21:16;;;;;;;10.57;5.03;;;16.00;99.90;;;;;;4962403;28;20234;-75
2023/09/28 07:23:42;;;;;;;8.90;4.60;;;16.10;99.90;;;;;;4962837;28;20049;-76
2023/09/28 07:26:18;;;;;;;7.03;4.13;;;16.20;99.90;;;;;;4964932;28;20681;-76
2023/09/28 07:28:46;;;;;;;7.53;3.80;;;16.30;99.90;;;;;;4965994;28;20030;-75
2023/09/28 07:31:15;;;;;;;9.05;3.20;;;16.30;99.90;;;;;;4970613;28;20042;-76
2023/09/28 07:33:42;;;;;;;4.70;2.92;;;16.50;99.90;;;;;;4958466;28;20027;-75
2023/09/28 07:36:14;;;;;;;6.65;3.08;;;16.50;99.90;;;;;;4960988;28;20035;-75
2023/09/28 07:38:47;;;;;;;11.23;4.25;;;16.60;99.90;;;;;;4968642;28;20027;-75
2023/09/28 07:41:15;;;;;;;9.85;4.32;;;16.80;99.90;;;;;;4964180;28;20019;-75
2023/09/28 07:43:50;;;;;;;9.32;3.92;;;16.90;99.90;;;;;;4962072;28;20078;-75
2023/09/28 07:46:19;;;;;;;9.02;4.20;;;17.10;99.90;;;;;;4963446;28;20019;-75
2023/09/28 07:48:50;;;;;;;8.25;4.25;;;17.20;99.90;;;;;;4965799;28;20069;-74
2023/09/28 07:51:34;;;;;;;11.15;4.10;;;17.30;99.90;;;;;;4947389;28;20031;-75
2023/09/28 07:54:00;;;;;;;7.80;3.60;;;17.30;99.90;;;;;;4966706;28;20062;-74
2023/09/28 07:56:26;;;;;;;15.43;4.25;;;17.40;99.90;;;;;;4968901;28;20023;-74
2023/09/28 07:58:57;;;;;;;7.07;3.45;;;17.40;99.90;;;;;;4969971;28;20073;-75
2023/09/28 08:01:32;;;;;;;6.75;3.30;;;17.40;99.90;;;;;;4965868;28;20073;-75
2023/09/28 08:03:57;;;;;;;7.93;3.70;;;17.30;99.90;;;;;;4967661;28;20389;-74
2023/09/28 08:06:23;;;;;;;7.13;3.58;;;17.30;99.90;;;;;;4968012;28;20030;-74
2023/09/28 08:08:53;;;;;;;11.57;3.72;;;17.30;99.90;;;;;;4964371;28;20121;-74
2023/09/28 08:11:18;;;;;;;9.95;3.88;;;17.30;99.80;;;;;;4964559;28;20118;-75
2023/09/28 08:13:47;;;;;;;7.65;3.25;;;17.40;99.90;;;;;;4966691;28;20558;-76
2023/09/28 08:16:22;;;;;;;8.80;3.50;;;17.40;99.90;;;;;;4948743;28;20504;-76
2023/09/28 08:18:48;;;;;;;7.60;3.47;;;17.50;99.90;;;;;;4966777;28;20089;-76
2023/09/28 08:21:14;;;;;;;7.72;3.67;;;17.50;99.70;;;;;;4969897;28;20115;-75
2023/09/28 08:23:40;;;;;;;8.18;3.67;;;17.60;99.80;;;;;;4967685;28;20505;-75
2023/09/28 08:26:08;;;;;;;6.82;3.40;;;17.60;99.40;;;;;;4983177;28;20038;-74
2023/09/28 08:28:38;;;;;;;5.88;3.10;;;17.60;99.40;;;;;;4970961;28;20030;-75
2023/09/28 08:31:04;;;;;;;5.82;3.00;;;17.70;99.20;;;;;;4968709;28;20292;-75
2023/09/28 08:33:32;;;;;;;6.22;3.38;;;17.80;99.10;;;;;;4969862;28;20473;-75
2023/09/28 08:35:58;;;;;;;6.40;3.40;;;17.80;99.10;;;;;;4952873;28;20089;-75
2023/09/28 08:38:23;;;;;;;5.72;3.08;;;17.80;99.20;;;;;;4962791;28;20035;-75
2023/09/28 08:40:53;;;;;;;7.57;3.28;;;17.90;99.40;;;;;;4968443;28;20023;-74
2023/09/28 08:43:29;;;;;;;7.30;3.15;;;17.90;99.30;;;;;;4969644;28;20023;-74
2023/09/28 08:45:57;;;;;;;6.28;3.22;;;18.00;99.30;;;;;;4971480;28;20054;-76
2023/09/28 08:48:40;;;;;;;6.55;3.72;;;18.10;99.40;;;;;;4975885;28;20033;-74
2023/09/28 08:51:09;;;;;;;8.82;4.00;;;18.20;99.10;;;;;;4995344;23;20025;-75
2023/09/28 08:53:38;;;;;;;9.98;4.05;;;18.20;99.00;;;;;;4992370;28;20031;-77
2023/09/28 08:56:05;;;;;;;8.02;3.75;;;18.30;99.10;;;;;;4953391;28;20046;-77
2023/09/28 08:58:34;;;;;;;8.52;3.10;;;18.40;99.20;;;;;;4956773;28;20130;-78
2023/09/28 09:01:01;;;;;;;5.75;3.67;;;18.50;99.30;;;;;;4976430;28;20105;-77
2023/09/28 09:03:28;;;;;;;7.18;3.60;;;18.60;99.30;;;;;;4955866;28;20027;-78
2023/09/28 09:06:00;;;;;;;8.30;3.40;;;18.70;99.30;;;;;;4986438;28;20026;-77
2023/09/28 09:08:35;;;;;;;8.93;3.22;;;18.70;99.80;;;;;;4987105;28;20039;-77
2023/09/28 09:11:00;;;;;;;7.85;2.92;;;18.80;99.40;;;;;;4976181;28;20033;-78
2023/09/28 09:13:56;;;;;;;8.98;2.88;;;18.90;99.40;;;;;;4971647;28;20058;-77
2023/09/28 09:16:23;;;;;;;11.13;3.38;;;19.00;98.90;;;;;;4975866;28;20035;-78
2023/09/28 09:18:56;;;;;;;5.25;2.35;;;19.10;98.90;;;;;;4974796;28;20034;-77
2023/09/28 09:21:22;;;;;;;4.22;3.03;;;19.20;98.50;;;;;;4957679;28;20034;-77
2023/09/28 09:24:10;;;;;;;5.88;2.90;;;19.40;98.30;;;;;;4970083;28;20386;-78
2023/09/28 09:26:52;;;;;;;5.13;2.53;;;19.50;98.50;;;;;;4975439;28;20421;-75
2023/09/28 09:29:18;;;;;;;5.05;2.97;;;19.60;98.30;;;;;;4958008;28;20502;-76
2023/09/28 09:31:47;;;;;;;6.57;2.70;;;19.70;98.00;;;;;;4977322;28;20027;-75
2023/09/28 09:34:22;;;;;;;5.50;3.25;;;19.90;97.70;;;;;;4976578;28;20095;-79
2023/09/28 09:37:02;;;;;;;6.22;2.90;;;20.10;97.30;;;;;;4974984;28;20032;-76
2023/09/28 09:39:32;;;;;;;5.97;2.92;;;20.30;97.40;;;;;;4969719;28;20039;-77
2023/09/28 09:41:58;;;;;;;6.97;3.08;;;20.30;97.40;;;;;;4955191;28;20448;-77
2023/09/28 09:44:29;;;;;;;5.25;2.85;;;20.50;97.00;;;;;;4966388;28;20034;-76
2023/09/28 09:46:55;;;;;;;5.85;2.67;;;20.50;96.70;;;;;;4965880;28;20027;-76
2023/09/28 09:49:24;;;;;;;7.13;3.40;;;20.70;96.20;;;;;;4964787;28;20045;-77
2023/09/28 09:51:53;;;;;;;5.80;3.28;;;20.90;95.90;;;;;;4970242;28;20039;-77
2023/09/28 09:54:20;;;;;;;5.57;2.47;;;21.00;95.80;;;;;;4963594;28;20429;-76
2023/09/28 09:56:51;;;;;;;5.95;3.15;;;21.10;95.50;;;;;;4948469;28;20038;-76
2023/09/28 09:59:21;;;;;;;6.75;2.88;;;21.30;95.30;;;;;;4957323;28;20437;-76
2023/09/28 10:01:50;;;;;;;7.40;2.90;;;21.30;95.30;;;;;;4972696;28;20511;-77
2023/09/28 10:04:18;;;;;;;5.35;3.03;;;21.50;94.50;;;;;;4956081;28;20035;-77
2023/09/28 10:06:47;;;;;;;4.65;2.67;;;21.50;94.80;;;;;;4969337;28;20023;-76
2023/09/28 10:09:15;;;;;;;5.70;3.10;;;21.60;94.30;;;;;;4967422;28;20033;-76
2023/09/28 10:11:41;;;;;;;6.18;2.65;;;21.60;94.10;;;;;;4959559;28;20136;-76
2023/09/28 10:14:15;;;;;;;5.45;2.67;;;21.60;94.20;;;;;;4960496;28;20110;-76
2023/09/28 10:16:42;;;;;;;6.32;2.85;;;21.70;94.00;;;;;;4947313;28;20418;-77
2023/09/28 10:19:09;;;;;;;3.95;2.30;;;21.80;94.10;;;;;;4964858;28;20041;-77
2023/09/28 10:21:39;;;;;;;4.18;2.55;;;21.90;93.30;;;;;;4979906;28;20031;-76
2023/09/28 10:24:12;;;;;;;6.82;2.60;;;22.10;93.10;;;;;;4966701;28;20720;-76
2023/09/28 10:26:51;;;;;;;4.65;2.85;;;22.00;93.10;;;;;;4964802;28;20493;-76
2023/09/28 10:29:23;;;;;;;6.40;2.60;;;22.10;92.70;;;;;;4960115;28;20035;-76
2023/09/28 10:31:51;;;;;;;7.15;2.00;;;22.10;93.20;;;;;;4957913;28;20405;-73
2023/09/28 10:34:24;;;;;;;7.25;2.13;;;22.20;92.80;;;;;;4979246;28;20091;-79
2023/09/28 10:37:05;;;;;;;4.38;2.40;;;22.20;92.00;;;;;;4982368;28;20015;-79
2023/09/28 10:39:34;;;;;;;3.83;2.08;;;22.30;92.00;;;;;;4954751;28;20039;-79
2023/09/28 10:42:15;;;;;;;4.50;2.70;;;22.30;91.90;;;;;;4969997;28;20085;-80
2023/09/28 10:45:05;;;;;;;4.88;2.50;;;22.30;91.40;;;;;;4961810;28;20037;-79
2023/09/28 10:47:32;;;;;;;5.13;2.30;;;22.50;91.00;;;;;;4974407;28;20040;-79
2023/09/28 10:50:04;;;;;;;3.67;2.10;;;22.50;90.80;;;;;;4977428;28;20031;-76
2023/09/28 10:52:30;;;;;;;4.65;2.35;;;22.60;90.50;;;;;;4979318;28;20045;-78
2023/09/28 10:55:00;;;;;;;3.33;1.63;;;22.70;90.20;;;;;;4975263;28;20042;-77
2023/09/28 10:57:32;;;;;;;4.30;2.40;;;22.80;89.80;;;;;;4971518;28;20063;-79
2023/09/28 11:00:00;;;;;;;4.57;2.58;;;22.80;89.10;;;;;;4977658;28;20363;-76
2023/09/28 11:02:25;;;;;;;3.30;2.00;;;22.90;88.60;;;;;;4977827;28;20034;-79
2023/09/28 11:04:55;;;;;;;6.03;2.22;;;22.90;88.50;;;;;;4977665;28;20026;-78
2023/09/28 11:07:25;;;;;;;5.28;2.15;;;23.00;88.10;;;;;;4971946;28;20501;-79
2023/09/28 11:09:52;;;;;;;5.38;2.03;;;23.00;87.90;;;;;;4972354;28;20041;-78
2023/09/28 11:12:18;;;;;;;5.53;1.90;;;23.10;87.40;;;;;;4987406;28;20026;-79
2023/09/28 11:14:43;;;;;;;2.63;1.90;;;23.10;86.70;;;;;;4960321;28;20086;-77
2023/09/28 11:17:12;;;;;;;7.07;2.22;;;23.20;86.30;;;;;;4977572;28;20066;-78
2023/09/28 11:19:48;;;;;;;3.03;1.70;;;23.20;86.70;;;;;;4986798;28;20034;-78
2023/09/28 11:22:20;;;;;;;5.20;2.10;;;23.20;86.40;;;;;;4977461;28;20019;-79
2023/09/28 11:24:48;;;;;;;5.00;2.00;;;23.30;85.40;;;;;;4978226;28;20027;-76
2023/09/28 11:27:17;;;;;;;3.78;2.00;;;23.30;85.30;;;;;;4971607;28;20654;-80
2023/09/28 11:29:43;;;;;;;4.63;1.70;;;23.30;84.10;;;;;;4982599;28;20037;-79
2023/09/28 11:32:09;;;;;;;2.15;1.50;;;23.40;83.70;;;;;;4985071;28;20019;-79
2023/09/28 11:34:38;;;;;;;3.40;1.40;;;23.30;84.00;;;;;;4983402;28;20093;-79
2023/09/28 11:37:16;;;;;;;2.55;1.45;;;23.40;82.20;;;;;;4984329;28;20041;-79
2023/09/28 11:39:42;;;;;;;2.70;1.38;;;23.40;81.20;;;;;;4987052;28;20027;-80
2023/09/28 11:42:18;;;;;;;2.83;1.90;;;23.50;81.40;;;;;;4966666;28;20030;-78
2023/09/28 11:44:44;;;;;;;4.15;2.00;;;23.50;81.10;;;;;;4985668;28;20037;-79
2023/09/28 11:47:10;;;;;;;4.13;1.70;;;23.60;81.00;;;;;;4984848;28;20031;-78
2023/09/28 11:49:43;;;;;;;3.80;1.35;;;23.70;79.80;;;;;;4968863;28;20259;-79
2023/09/28 11:52:10;;;;;;;2.17;1.17;;;23.80;79.00;;;;;;4966813;28;20045;-78
2023/09/28 11:54:36;;;;;;;3.70;1.73;;;23.80;78.20;;;;;;4982871;28;20073;-79
2023/09/28 11:57:03;;;;;;;3.15;1.75;;;23.80;78.00;;;;;;4979495;28;20039;-79
2023/09/28 11:59:41;;;;;;;1.50;1.02;;;23.90;77.60;;;;;;4983249;28;20032;-77
2023/09/28 12:02:17;;;;;;;1.83;1.50;;;24.00;77.20;;;;;;4980150;28;20066;-76
2023/09/28 12:04:49;;;;;;;2.60;1.35;;;24.00;76.50;;;;;;4979711;28;20114;-77
2023/09/28 12:07:19;;;;;;;1.65;1.25;;;24.10;75.90;;;;;;4983475;28;20034;-79
2023/09/28 12:09:44;;;;;;;2.45;1.48;;;24.20;75.30;;;;;;4981724;28;20397;-79
2023/09/28 12:12:10;;;;;;;4.97;1.48;;;24.30;74.90;;;;;;4980096;28;20034;-79
2023/09/28 12:14:38;;;;;;;1.83;1.13;;;24.30;74.00;;;;;;4978411;28;20509;-78
2023/09/28 12:17:04;;;;;;;2.22;1.27;;;24.40;73.30;;;;;;4979320;28;20054;-78
2023/09/28 12:19:31;;;;;;;1.98;1.10;;;24.40;73.40;;;;;;4984182;28;20449;-78
2023/09/28 12:21:58;;;;;;;2.30;1.20;;;24.40;73.20;;;;;;4980633;28;20046;-78
2023/09/28 12:24:26;;;;;;;3.67;1.20;;;24.30;73.50;;;;;;4963159;28;20574;-78
2023/09/28 12:26:52;;;;;;;2.50;1.00;;;24.30;72.80;;;;;;4982335;28;20048;-77
2023/09/28 12:29:24;;;;;;;2.88;1.63;;;24.30;72.40;;;;;;4979936;28;20031;-77
2023/09/28 12:31:58;;;;;;;3.13;1.30;;;24.30;72.80;;;;;;4961051;28;20502;-79
2023/09/28 12:34:30;;;;;;;3.17;1.30;;;24.30;72.60;;;;;;4981882;28;20039;-79
2023/09/28 12:36:59;;;;;;;2.42;1.38;;;24.30;73.30;;;;;;4979766;28;20030;-78
2023/09/28 12:39:32;;;;;;;2.40;1.17;;;24.30;73.10;;;;;;4961812;28;20345;-79
2023/09/28 12:41:58;;;;;;;2.10;0.90;;;24.30;73.20;;;;;;4977633;28;20109;-75
2023/09/28 12:44:26;;;;;;;2.97;1.08;;;24.30;72.70;;;;;;4982007;28;20023;-77
2023/09/28 12:46:55;;;;;;;7.20;1.30;;;24.30;72.60;;;;;;4976209;28;20014;-78
2023/09/28 12:49:30;;;;;;;1.63;0.90;;;24.30;72.80;;;;;;4981550;28;20030;-79
2023/09/28 12:51:56;;;;;;;2.88;1.15;;;24.30;72.40;;;;;;4981719;28;20027;-79
2023/09/28 12:54:25;;;;;;;1.73;1.25;;;24.30;72.40;;;;;;4962238;28;20524;-79
2023/09/28 12:57:01;;;;;;;1.90;1.10;;;24.30;73.20;;;;;;4979914;28;20188;-79
2023/09/28 12:59:27;;;;;;;2.72;1.80;;;24.30;72.60;;;;;;4982816;28;20023;-76
2023/09/28 13:01:56;;;;;;;2.42;1.20;;;24.40;72.30;;;;;;4977692;28;20038;-78